Time;durP1;ratioP1;P1;durP2;ratioP2;P2;SDS_P1;SDS_P2;PMS_P1;PMS_P2;Temp;Humidity;BMP_temperature;BMP_pressure;BME280_temperature;BME280_humidity;BME280_pressure;Samples;Min_cycle;Max_cycle;Signal;HPM_P1;HPM_P2
2023/06/01 00:00:55;;;;;;;9.48;4.65;;;14.40;99.90;;;;;;5073117;28;20053;-37
2023/06/01 00:03:22;;;;;;;7.35;4.63;;;14.40;99.90;;;;;;5080648;28;20147;-38
2023/06/01 00:05:47;;;;;;;7.07;4.50;;;14.30;99.90;;;;;;5079183;28;20394;-38
2023/06/01 00:08:13;;;;;;;7.28;4.88;;;14.30;99.90;;;;;;5080901;28;20047;-37
2023/06/01 00:10:38;;;;;;;6.47;4.75;;;14.20;99.90;;;;;;5082321;28;20507;-37
2023/06/01 00:13:04;;;;;;;6.90;4.68;;;14.20;99.90;;;;;;5086063;28;20389;-38
2023/06/01 00:15:29;;;;;;;7.15;4.82;;;14.20;99.90;;;;;;5080303;28;20024;-38
2023/06/01 00:17:55;;;;;;;6.13;4.63;;;14.10;99.90;;;;;;5078526;28;20461;-37
2023/06/01 00:20:24;;;;;;;5.53;4.68;;;14.20;99.90;;;;;;5060269;28;20046;-38
2023/06/01 00:22:50;;;;;;;6.43;4.45;;;14.10;99.90;;;;;;5075019;28;20590;-38
2023/06/01 00:25:15;;;;;;;5.88;4.47;;;14.10;99.90;;;;;;5078988;28;20119;-38
2023/06/01 00:27:41;;;;;;;6.53;4.03;;;14.10;99.90;;;;;;5075895;28;20029;-38
2023/06/01 00:30:07;;;;;;;6.82;4.53;;;14.00;99.90;;;;;;5081762;28;20473;-38
2023/06/01 00:32:32;;;;;;;7.70;4.70;;;14.00;99.90;;;;;;5080638;28;20527;-38
2023/06/01 00:34:58;;;;;;;6.50;4.32;;;14.10;99.90;;;;;;5080655;28;20020;-38
2023/06/01 00:37:24;;;;;;;6.78;4.28;;;14.00;99.90;;;;;;5084505;28;20047;-38
2023/06/01 00:39:49;;;;;;;5.30;4.05;;;14.10;99.90;;;;;;5075682;28;20374;-38
2023/06/01 00:42:15;;;;;;;7.78;4.47;;;14.10;99.90;;;;;;5082467;28;20420;-38
2023/06/01 00:44:40;;;;;;;6.22;4.20;;;14.20;99.90;;;;;;5081141;28;20032;-38
2023/06/01 00:47:07;;;;;;;5.15;3.80;;;14.10;99.90;;;;;;5077211;28;20513;-38
2023/06/01 00:49:33;;;;;;;5.47;4.28;;;14.10;99.90;;;;;;5079016;28;20032;-38
2023/06/01 00:51:59;;;;;;;5.30;3.78;;;14.10;99.90;;;;;;5079312;28;20035;-38
2023/06/01 00:54:25;;;;;;;6.55;4.50;;;14.10;99.90;;;;;;5079808;28;20571;-38
2023/06/01 00:56:51;;;;;;;5.65;4.15;;;14.10;99.90;;;;;;5081202;28;20131;-38
2023/06/01 00:59:17;;;;;;;8.27;4.38;;;13.90;99.90;;;;;;5079092;28;20023;-38
2023/06/01 01:01:43;;;;;;;5.85;4.53;;;13.90;99.90;;;;;;5079803;28;20028;-43
2023/06/01 01:04:10;;;;;;;7.05;4.50;;;13.80;99.90;;;;;;5079222;28;20020;-43
2023/06/01 01:06:45;;;;;;;7.13;4.95;;;13.70;99.90;;;;;;5079147;28;20039;-43
2023/06/01 01:09:27;;;;;;;9.73;4.47;;;13.70;99.90;;;;;;5078802;28;20032;-43
2023/06/01 01:12:36;;;;;;;6.78;5.28;;;13.70;99.90;;;;;;5077922;28;20389;-43
2023/06/01 01:15:13;;;;;;;6.18;5.10;;;13.70;99.90;;;;;;5074335;28;20029;-43
2023/06/01 01:17:42;;;;;;;5.13;4.63;;;13.50;99.90;;;;;;5075810;28;20059;-43
2023/06/01 01:20:28;;;;;;;7.13;4.93;;;13.50;99.90;;;;;;5078660;28;20283;-43
2023/06/01 01:23:24;;;;;;;6.70;4.60;;;13.40;99.90;;;;;;5078998;28;20028;-43
2023/06/01 01:26:22;;;;;;;7.93;4.70;;;13.30;99.90;;;;;;5076628;28;20424;-43
2023/06/01 01:29:05;;;;;;;5.80;4.93;;;13.10;99.90;;;;;;5077140;28;20039;-43
2023/06/01 01:31:32;;;;;;;5.68;4.22;;;13.20;99.90;;;;;;5077261;28;20040;-43
2023/06/01 01:33:58;;;;;;;6.22;4.38;;;13.30;99.90;;;;;;5077668;28;20085;-43
2023/06/01 01:36:24;;;;;;;5.72;4.38;;;13.30;99.90;;;;;;5077566;28;20024;-43
2023/06/01 01:38:50;;;;;;;7.22;4.72;;;13.30;99.90;;;;;;5077136;28;20031;-43
2023/06/01 01:41:16;;;;;;;8.48;5.10;;;13.30;99.90;;;;;;5079775;28;20029;-43
2023/06/01 01:43:42;;;;;;;8.02;4.78;;;13.40;99.90;;;;;;5075910;28;20043;-43
2023/06/01 01:46:25;;;;;;;7.88;4.85;;;13.30;99.90;;;;;;5075410;28;20027;-43
2023/06/01 01:49:03;;;;;;;7.53;4.80;;;13.10;99.90;;;;;;5076004;28;20021;-43
2023/06/01 01:51:49;;;;;;;4.47;3.80;;;12.90;99.90;;;;;;5079558;28;20043;-43
2023/06/01 01:54:17;;;;;;;6.82;4.70;;;12.90;99.90;;;;;;5075361;28;20036;-43
2023/06/01 01:56:44;;;;;;;5.80;4.90;;;12.90;99.90;;;;;;5081718;28;20039;-43
2023/06/01 01:59:11;;;;;;;7.07;4.77;;;12.80;99.90;;;;;;5076810;28;20021;-43
2023/06/01 02:01:41;;;;;;;6.25;4.68;;;12.80;99.90;;;;;;5075937;28;20064;-45
2023/06/01 02:04:07;;;;;;;6.90;4.82;;;12.80;99.90;;;;;;5078947;28;20043;-43
2023/06/01 02:06:33;;;;;;;10.75;5.32;;;12.80;99.90;;;;;;5077327;28;20384;-43
2023/06/01 02:09:00;;;;;;;7.00;4.78;;;12.90;99.90;;;;;;5074778;28;20029;-43
2023/06/01 02:11:26;;;;;;;10.82;4.65;;;12.90;99.90;;;;;;5080383;28;20020;-43
2023/06/01 02:13:52;;;;;;;5.95;4.40;;;12.80;99.90;;;;;;5077137;28;20101;-43
2023/06/01 02:16:18;;;;;;;7.13;4.82;;;12.80;99.90;;;;;;5078011;28;20086;-43
2023/06/01 02:18:45;;;;;;;6.63;4.47;;;12.90;99.90;;;;;;5076559;28;20391;-43
2023/06/01 02:21:12;;;;;;;6.67;4.97;;;12.80;99.90;;;;;;5078524;28;20036;-43
2023/06/01 02:23:39;;;;;;;7.35;5.05;;;12.80;99.90;;;;;;5081549;28;20033;-43
2023/06/01 02:26:05;;;;;;;6.95;4.53;;;12.80;99.90;;;;;;5078362;28;20032;-43
2023/06/01 02:28:31;;;;;;;7.43;4.70;;;12.60;99.90;;;;;;5081813;28;20031;-43
2023/06/01 02:30:56;;;;;;;7.00;4.70;;;12.60;99.90;;;;;;5074025;28;20028;-42
2023/06/01 02:33:24;;;;;;;6.57;4.60;;;12.60;99.90;;;;;;5078511;28;20091;-43
2023/06/01 02:35:50;;;;;;;6.45;4.63;;;12.60;99.90;;;;;;5076453;28;20116;-43
2023/06/01 02:38:16;;;;;;;5.97;4.60;;;12.60;99.90;;;;;;5075963;28;20104;-43
2023/06/01 02:40:42;;;;;;;8.45;4.65;;;12.60;99.90;;;;;;5075322;28;20028;-43
2023/06/01 02:43:08;;;;;;;7.03;4.93;;;12.50;99.90;;;;;;5078646;28;20036;-43
2023/06/01 02:45:34;;;;;;;7.82;4.55;;;12.50;99.90;;;;;;5077931;28;20366;-43
2023/06/01 02:47:59;;;;;;;5.97;4.60;;;12.40;99.90;;;;;;5084599;28;20524;-43
2023/06/01 02:50:26;;;;;;;8.27;4.53;;;12.40;99.90;;;;;;5083077;28;20388;-43
2023/06/01 02:52:51;;;;;;;8.00;4.90;;;12.30;99.90;;;;;;5077370;28;20112;-43
2023/06/01 02:55:17;;;;;;;6.15;4.53;;;12.30;99.90;;;;;;5076603;28;20111;-43
2023/06/01 02:57:43;;;;;;;7.78;4.97;;;12.00;99.90;;;;;;5084431;28;20047;-43
2023/06/01 03:00:15;;;;;;;7.13;4.88;;;11.80;99.90;;;;;;5080302;28;20020;-43
2023/06/01 03:02:42;;;;;;;6.90;4.75;;;11.60;99.90;;;;;;5081658;28;20060;-43
2023/06/01 03:05:08;;;;;;;9.75;5.20;;;11.50;99.90;;;;;;5077180;28;20040;-43
2023/06/01 03:07:34;;;;;;;7.25;4.50;;;11.60;99.90;;;;;;5080551;28;20028;-43
2023/06/01 03:09:59;;;;;;;7.00;5.20;;;11.60;99.90;;;;;;5080280;28;20093;-43
2023/06/01 03:12:25;;;;;;;6.38;4.82;;;11.70;99.90;;;;;;5079723;28;20679;-43
2023/06/01 03:14:51;;;;;;;7.65;5.00;;;11.70;99.90;;;;;;5082059;28;20505;-43
2023/06/01 03:17:16;;;;;;;9.60;5.25;;;11.70;99.90;;;;;;5083684;28;20031;-43
2023/06/01 03:19:42;;;;;;;7.78;4.50;;;11.80;99.90;;;;;;5081844;28;20545;-43
2023/06/01 03:22:08;;;;;;;7.20;4.80;;;11.90;99.90;;;;;;5075607;28;20039;-43
2023/06/01 03:24:34;;;;;;;10.48;4.93;;;11.90;99.90;;;;;;5079537;28;20040;-43
2023/06/01 03:27:00;;;;;;;7.03;4.60;;;11.90;99.90;;;;;;5061724;28;20032;-43
2023/06/01 03:29:26;;;;;;;10.45;4.38;;;11.90;99.90;;;;;;5080420;28;20516;-43
2023/06/01 03:31:52;;;;;;;5.82;4.60;;;11.90;99.90;;;;;;5077144;28;20044;-43
2023/06/01 03:34:17;;;;;;;6.50;4.90;;;11.90;99.90;;;;;;5080875;28;20028;-43
2023/06/01 03:36:47;;;;;;;7.30;4.03;;;12.00;99.90;;;;;;5079149;28;20032;-42
2023/06/01 03:39:16;;;;;;;6.13;4.35;;;11.90;99.90;;;;;;5077981;28;20051;-43
2023/06/01 03:41:45;;;;;;;6.85;4.70;;;11.80;99.90;;;;;;5078390;28;20028;-43
2023/06/01 03:44:12;;;;;;;7.65;4.68;;;11.70;99.90;;;;;;5077276;28;20028;-43
2023/06/01 03:46:38;;;;;;;7.75;5.38;;;11.70;99.90;;;;;;5082206;28;20040;-43
2023/06/01 03:49:04;;;;;;;6.57;4.85;;;11.70;99.90;;;;;;5080255;28;20036;-43
2023/06/01 03:51:30;;;;;;;6.97;4.80;;;11.70;99.90;;;;;;5080129;28;20512;-41
2023/06/01 03:53:56;;;;;;;6.43;4.75;;;11.70;99.90;;;;;;5078592;28;20467;-41
2023/06/01 03:56:22;;;;;;;6.78;4.75;;;11.90;99.90;;;;;;5060771;28;20044;-41
2023/06/01 03:58:48;;;;;;;6.72;4.60;;;11.90;99.90;;;;;;5079355;28;20639;-41
2023/06/01 04:01:16;;;;;;;8.98;4.57;;;11.90;99.90;;;;;;5078952;28;20115;-41
2023/06/01 04:03:43;;;;;;;;;;;11.80;99.90;;;;;;5062815;28;20032;-41
2023/06/01 04:06:12;;;;;;;6.55;4.30;;;11.90;99.90;;;;;;5081078;28;19999;-41
2023/06/01 04:08:42;;;;;;;;;;;11.90;99.90;;;;;;5077457;28;20036;-41
2023/06/01 04:11:07;;;;;;;7.10;4.18;;;12.00;99.90;;;;;;5079953;28;20518;-41
2023/06/01 04:13:33;;;;;;;6.45;4.90;;;12.10;99.90;;;;;;5082676;28;20067;-41
2023/06/01 04:15:58;;;;;;;6.40;4.32;;;12.10;99.90;;;;;;5083296;28;20485;-41
2023/06/01 04:18:24;;;;;;;7.03;4.90;;;12.20;99.90;;;;;;5080520;28;20044;-41
2023/06/01 04:20:50;;;;;;;8.60;5.20;;;12.10;99.90;;;;;;5077937;28;20024;-41
2023/06/01 04:23:16;;;;;;;7.65;4.55;;;12.10;99.90;;;;;;5073862;28;20163;-41
2023/06/01 04:25:43;;;;;;;9.80;5.03;;;12.10;99.90;;;;;;5079496;28;20050;-41
2023/06/01 04:28:10;;;;;;;6.32;4.78;;;12.20;99.90;;;;;;5049304;28;20114;-41
2023/06/01 04:30:35;;;;;;;6.05;4.68;;;12.10;99.90;;;;;;5078639;28;20036;-41
2023/06/01 04:33:01;;;;;;;6.82;4.97;;;12.20;99.90;;;;;;5074814;28;20465;-41
2023/06/01 04:35:27;;;;;;;10.10;5.38;;;12.20;99.90;;;;;;5079405;28;20024;-41
2023/06/01 04:37:52;;;;;;;8.07;5.18;;;12.30;99.90;;;;;;5080069;28;20052;-41
2023/06/01 04:40:18;;;;;;;5.97;4.93;;;12.40;99.90;;;;;;5076968;28;20020;-42
2023/06/01 04:42:50;;;;;;;6.93;5.20;;;12.50;99.90;;;;;;5075845;28;20040;-41
2023/06/01 04:45:18;;;;;;;8.07;5.35;;;12.70;99.90;;;;;;5078269;28;20043;-41
2023/06/01 04:47:44;;;;;;;10.65;5.38;;;12.80;99.90;;;;;;5078014;28;20028;-41
2023/06/01 04:50:11;;;;;;;7.55;5.30;;;12.90;99.90;;;;;;5081011;28;20024;-41
2023/06/01 04:52:41;;;;;;;8.25;5.18;;;13.00;99.90;;;;;;5076941;28;20047;-41
2023/06/01 04:55:08;;;;;;;7.80;5.05;;;13.20;99.90;;;;;;5078685;28;20020;-42
2023/06/01 04:57:38;;;;;;;7.00;5.35;;;13.30;99.90;;;;;;5077788;28;20056;-41
2023/06/01 05:00:13;;;;;;;9.52;5.28;;;13.50;99.90;;;;;;5078820;28;20173;-42
2023/06/01 05:02:40;;;;;;;7.85;5.32;;;13.50;99.90;;;;;;5078553;28;20036;-41
2023/06/01 05:05:07;;;;;;;6.53;5.30;;;13.70;99.90;;;;;;5078235;28;20110;-41
2023/06/01 05:07:33;;;;;;;8.55;5.40;;;13.80;99.90;;;;;;5080987;28;20024;-41
2023/06/01 05:10:04;;;;;;;6.40;5.10;;;13.70;99.90;;;;;;5077183;28;20040;-41
2023/06/01 05:12:29;;;;;;;6.43;5.22;;;13.80;99.90;;;;;;5074444;28;20028;-41
2023/06/01 05:14:55;;;;;;;6.45;5.05;;;13.90;99.90;;;;;;5074628;28;20579;-42
2023/06/01 05:17:21;;;;;;;7.90;5.20;;;14.10;99.90;;;;;;5076307;28;20054;-41
2023/06/01 05:19:46;;;;;;;9.23;5.45;;;14.30;99.90;;;;;;5075602;28;20049;-41
2023/06/01 05:22:12;;;;;;;8.15;5.00;;;14.40;99.90;;;;;;5074418;28;20024;-41
2023/06/01 05:24:38;;;;;;;7.30;5.57;;;14.50;99.90;;;;;;5065914;28;20028;-41
2023/06/01 05:27:04;;;;;;;6.07;4.93;;;14.50;99.90;;;;;;5076953;28;20035;-41
2023/06/01 05:29:30;;;;;;;10.63;5.00;;;14.40;99.90;;;;;;5078409;28;20039;-41
2023/06/01 05:31:55;;;;;;;7.95;5.25;;;14.40;99.90;;;;;;5079803;28;20032;-42
2023/06/01 05:34:22;;;;;;;9.15;5.05;;;14.50;99.90;;;;;;5082446;28;20496;-41
2023/06/01 05:36:48;;;;;;;8.02;5.10;;;14.70;99.90;;;;;;5066825;28;20473;-41
2023/06/01 05:39:14;;;;;;;8.80;5.03;;;14.80;99.90;;;;;;5074816;28;20039;-41
2023/06/01 05:41:41;;;;;;;6.47;5.00;;;15.00;99.90;;;;;;5063882;28;20039;-41
2023/06/01 05:44:06;;;;;;;7.28;5.05;;;15.00;99.90;;;;;;5074447;28;20024;-41
2023/06/01 05:46:32;;;;;;;7.72;4.53;;;15.10;99.90;;;;;;5078629;28;20048;-41
2023/06/01 05:48:57;;;;;;;5.65;4.50;;;15.20;99.90;;;;;;5080849;28;20086;-41
2023/06/01 05:51:23;;;;;;;6.68;4.50;;;15.30;99.90;;;;;;5078856;28;20770;-41
2023/06/01 05:53:49;;;;;;;9.18;4.60;;;15.40;99.90;;;;;;5075107;28;20051;-41
2023/06/01 05:56:16;;;;;;;6.72;4.82;;;15.50;99.90;;;;;;5081100;28;20033;-41
2023/06/01 05:58:42;;;;;;;6.25;4.28;;;15.70;99.90;;;;;;5077007;28;20512;-41
2023/06/01 06:01:07;;;;;;;6.78;4.57;;;15.80;99.90;;;;;;5077827;28;20028;-41
2023/06/01 06:03:33;;;;;;;8.90;4.45;;;15.90;99.90;;;;;;5081520;28;20031;-41
2023/06/01 06:06:00;;;;;;;7.47;4.45;;;16.00;99.90;;;;;;5073134;28;20478;-41
2023/06/01 06:08:26;;;;;;;6.75;4.57;;;16.20;99.90;;;;;;5063175;28;20115;-41
2023/06/01 06:10:51;;;;;;;8.85;4.47;;;16.30;99.90;;;;;;5076481;28;20599;-41
2023/06/01 06:13:17;;;;;;;7.15;4.82;;;16.50;99.90;;;;;;5076795;28;20089;-41
2023/06/01 06:15:42;;;;;;;10.63;4.60;;;16.60;99.90;;;;;;5075411;28;20021;-41
2023/06/01 06:18:08;;;;;;;7.80;4.15;;;16.70;99.90;;;;;;5075899;28;20090;-41
2023/06/01 06:20:34;;;;;;;5.85;4.40;;;16.60;99.90;;;;;;5079724;28;20102;-41
2023/06/01 06:22:59;;;;;;;12.85;5.03;;;16.70;99.90;;;;;;5080112;28;20104;-42
2023/06/01 06:25:25;;;;;;;7.90;4.13;;;16.80;99.90;;;;;;5081611;28;20032;-41
2023/06/01 06:27:50;;;;;;;6.28;4.13;;;16.80;99.90;;;;;;5088563;28;20110;-41
2023/06/01 06:30:16;;;;;;;9.10;5.32;;;17.00;99.90;;;;;;5083635;28;20386;-41
2023/06/01 06:32:42;;;;;;;9.60;4.47;;;17.10;99.90;;;;;;5077940;28;20115;-41
2023/06/01 06:35:12;;;;;;;9.95;4.10;;;17.30;99.90;;;;;;5076768;28;20028;-42
2023/06/01 06:37:39;;;;;;;9.40;4.38;;;17.30;99.90;;;;;;5078952;28;20402;-41
2023/06/01 06:40:06;;;;;;;7.30;4.50;;;17.40;99.90;;;;;;5083652;28;20404;-41
2023/06/01 06:42:32;;;;;;;5.80;3.70;;;17.60;99.90;;;;;;5084312;28;20032;-41
2023/06/01 06:44:57;;;;;;;9.82;4.32;;;17.80;99.90;;;;;;5076200;28;20397;-41
2023/06/01 06:47:24;;;;;;;6.18;3.70;;;17.80;99.90;;;;;;5085373;28;20039;-41
2023/06/01 06:49:51;;;;;;;6.93;4.25;;;18.00;99.90;;;;;;5081042;28;20024;-42
2023/06/01 06:52:16;;;;;;;5.95;3.95;;;18.10;99.90;;;;;;5081436;28;20027;-41
2023/06/01 06:54:42;;;;;;;9.90;4.35;;;18.20;99.90;;;;;;5087242;28;20028;-41
2023/06/01 06:57:08;;;;;;;6.57;3.85;;;18.20;99.90;;;;;;5083286;28;20068;-41
2023/06/01 06:59:35;;;;;;;5.65;3.95;;;18.40;99.90;;;;;;5083444;28;20109;-42
2023/06/01 07:02:00;;;;;;;8.52;4.30;;;18.40;99.90;;;;;;5080161;28;20036;-42
2023/06/01 07:04:27;;;;;;;7.30;4.43;;;18.50;99.90;;;;;;5078011;28;20454;-41
2023/06/01 07:06:53;;;;;;;6.32;4.28;;;18.70;99.90;;;;;;5082088;28;20029;-41
2023/06/01 07:09:18;;;;;;;5.35;3.80;;;18.80;99.90;;;;;;5069129;28;20086;-41
2023/06/01 07:11:45;;;;;;;4.65;3.38;;;18.80;99.90;;;;;;5085779;28;20035;-41
2023/06/01 07:14:11;;;;;;;5.80;4.05;;;18.90;99.90;;;;;;5078671;28;20110;-41
2023/06/01 07:16:36;;;;;;;8.30;3.70;;;19.00;99.90;;;;;;5081295;28;20020;-41
2023/06/01 07:19:02;;;;;;;9.45;4.75;;;19.00;99.90;;;;;;5086561;28;20106;-41
2023/06/01 07:21:28;;;;;;;5.75;4.10;;;19.10;99.90;;;;;;5083686;28;20040;-41
2023/06/01 07:23:54;;;;;;;10.32;4.90;;;19.20;99.90;;;;;;5080044;28;20666;-41
2023/06/01 07:26:20;;;;;;;8.48;3.80;;;19.40;99.90;;;;;;5081605;28;20036;-41
2023/06/01 07:28:46;;;;;;;8.27;3.78;;;19.40;99.90;;;;;;5077690;28;20028;-41
2023/06/01 07:31:11;;;;;;;7.68;4.40;;;19.30;99.90;;;;;;5081455;28;20036;-41
2023/06/01 07:33:37;;;;;;;7.35;4.32;;;19.40;99.90;;;;;;5079978;28;20378;-41
2023/06/01 07:36:06;;;;;;;13.02;3.88;;;19.30;99.90;;;;;;5079665;28;20521;-41
2023/06/01 07:38:32;;;;;;;6.63;4.15;;;19.40;99.90;;;;;;5081212;28;20103;-42
2023/06/01 07:40:59;;;;;;;9.30;3.80;;;19.60;99.90;;;;;;5066317;28;20420;-42
2023/06/01 07:43:24;;;;;;;8.30;4.30;;;19.60;99.90;;;;;;5077728;28;20131;-41
2023/06/01 07:45:50;;;;;;;5.72;3.60;;;19.60;99.90;;;;;;5082330;28;20119;-41
2023/06/01 07:48:16;;;;;;;7.15;4.15;;;19.80;99.90;;;;;;5085340;28;20453;-41
2023/06/01 07:50:41;;;;;;;7.00;3.78;;;19.70;99.90;;;;;;5080197;28;20497;-41
2023/06/01 07:53:09;;;;;;;5.28;4.03;;;19.70;99.90;;;;;;5081754;28;20032;-41
2023/06/01 07:55:35;;;;;;;6.78;4.13;;;19.80;99.90;;;;;;5078580;28;20032;-41
2023/06/01 07:58:01;;;;;;;5.55;3.95;;;19.80;99.90;;;;;;5078361;28;20367;-41
2023/06/01 08:00:27;;;;;;;5.78;3.40;;;19.90;99.90;;;;;;5079325;28;20078;-41
2023/06/01 08:02:52;;;;;;;6.40;4.13;;;19.90;99.90;;;;;;5079175;28;20028;-41
2023/06/01 08:05:18;;;;;;;6.90;4.30;;;20.20;99.90;;;;;;5082052;28;20050;-41
2023/06/01 08:07:45;;;;;;;7.80;4.18;;;20.30;99.90;;;;;;5078208;28;20032;-41
2023/06/01 08:10:13;;;;;;;8.17;4.33;;;20.40;99.90;;;;;;5081518;28;20032;-41
2023/06/01 08:12:39;;;;;;;6.95;4.07;;;20.50;99.90;;;;;;5074015;28;20048;-41
2023/06/01 08:15:05;;;;;;;7.88;4.45;;;20.70;99.90;;;;;;5085297;28;20020;-41
2023/06/01 08:17:31;;;;;;;9.90;4.47;;;20.60;99.90;;;;;;5079202;28;20032;-41
2023/06/01 08:19:56;;;;;;;5.97;4.07;;;20.60;99.90;;;;;;5082565;28;20047;-42
2023/06/01 08:22:26;;;;;;;7.28;4.45;;;20.90;99.90;;;;;;5077776;28;20028;-41
2023/06/01 08:24:52;;;;;;;8.02;4.40;;;21.10;99.90;;;;;;5078249;28;20032;-41
2023/06/01 08:27:19;;;;;;;9.23;4.68;;;21.30;99.90;;;;;;5065664;28;20064;-41
2023/06/01 08:29:46;;;;;;;5.78;4.30;;;21.30;99.90;;;;;;5080038;28;20477;-41
2023/06/01 08:32:12;;;;;;;7.30;4.35;;;21.30;99.90;;;;;;5077923;28;20040;-41
2023/06/01 08:34:38;;;;;;;9.32;3.92;;;21.30;99.90;;;;;;5080682;28;20043;-41
2023/06/01 08:37:04;;;;;;;4.97;4.18;;;21.20;99.90;;;;;;5079299;28;20091;-41
2023/06/01 08:39:30;;;;;;;8.02;4.55;;;21.30;99.90;;;;;;5081428;28;20108;-41
2023/06/01 08:42:09;;;;;;;5.13;4.30;;;21.40;99.90;;;;;;5081585;28;20119;-42
2023/06/01 08:44:38;;;;;;;6.78;4.28;;;21.40;99.90;;;;;;5075849;28;20434;-41
2023/06/01 08:47:05;;;;;;;7.55;4.13;;;21.40;99.90;;;;;;5077846;28;20449;-41
2023/06/01 08:49:32;;;;;;;7.32;4.28;;;21.60;99.90;;;;;;5077485;28;20036;-41
2023/06/01 08:52:02;;;;;;;5.32;3.85;;;21.80;99.90;;;;;;5079841;28;20489;-41
2023/06/01 08:54:30;;;;;;;7.15;4.90;;;21.80;99.90;;;;;;5078238;28;20071;-41
2023/06/01 08:57:02;;;;;;;7.47;4.63;;;21.80;99.90;;;;;;5081844;28;20032;-41
2023/06/01 08:59:30;;;;;;;7.43;4.93;;;21.80;99.90;;;;;;5082841;28;20028;-41
2023/06/01 09:01:57;;;;;;;8.32;4.40;;;21.80;99.90;;;;;;5079253;28;20109;-41
2023/06/01 09:04:22;;;;;;;7.43;4.50;;;21.90;99.90;;;;;;5080823;28;20546;-41
2023/06/01 09:06:48;;;;;;;7.70;4.30;;;22.20;99.90;;;;;;5080828;28;20036;-41
2023/06/01 09:09:14;;;;;;;7.38;4.78;;;22.20;99.90;;;;;;5076256;28;20054;-41
2023/06/01 09:11:39;;;;;;;5.45;4.20;;;22.30;99.90;;;;;;5077699;28;20024;-41
2023/06/01 09:14:25;;;;;;;7.60;4.40;;;22.30;99.90;;;;;;5072587;28;20044;-41
2023/06/01 09:16:51;;;;;;;6.35;4.30;;;22.50;99.90;;;;;;5075747;28;20404;-41
2023/06/01 09:19:20;;;;;;;6.72;4.43;;;22.70;99.90;;;;;;5076944;28;20048;-41
2023/06/01 09:21:59;;;;;;;6.75;4.72;;;22.60;99.90;;;;;;5056760;28;20044;-41
2023/06/01 09:24:26;;;;;;;10.05;4.72;;;22.70;99.90;;;;;;5077950;28;20037;-41
2023/06/01 09:26:59;;;;;;;7.68;4.78;;;22.80;99.90;;;;;;5075751;28;20028;-41
2023/06/01 09:29:24;;;;;;;7.97;4.63;;;22.80;99.90;;;;;;5081452;28;20053;-41
2023/06/01 09:31:50;;;;;;;6.95;4.40;;;22.90;99.90;;;;;;5078265;28;20036;-41
2023/06/01 09:34:20;;;;;;;5.57;4.30;;;22.80;99.90;;;;;;5084633;28;20362;-41
2023/06/01 09:36:50;;;;;;;8.45;4.57;;;23.00;99.90;;;;;;5076864;28;20499;-41
2023/06/01 09:39:19;;;;;;;5.93;3.95;;;23.00;99.90;;;;;;5073502;28;20525;-40
2023/06/01 09:41:59;;;;;;;6.22;4.00;;;23.20;99.90;;;;;;5076735;28;20048;-41
2023/06/01 09:44:36;;;;;;;6.32;3.95;;;23.20;99.90;;;;;;5074434;28;20029;-41
2023/06/01 09:47:09;;;;;;;5.47;3.55;;;23.30;99.90;;;;;;5075956;28;20032;-41
2023/06/01 09:49:39;;;;;;;6.25;4.30;;;23.30;99.90;;;;;;5077657;28;20032;-41
2023/06/01 09:52:05;;;;;;;6.55;4.50;;;23.40;99.90;;;;;;5079897;28;20040;-41
2023/06/01 09:54:31;;;;;;;6.72;4.22;;;23.20;99.90;;;;;;5077340;28;20017;-41
2023/06/01 09:56:58;;;;;;;5.88;4.60;;;23.20;99.90;;;;;;5074842;28;20427;-41
2023/06/01 09:59:25;;;;;;;4.65;3.75;;;23.30;99.90;;;;;;5081794;28;20388;-41
2023/06/01 10:01:53;;;;;;;7.73;4.40;;;23.40;99.90;;;;;;5077383;28;20038;-41
2023/06/01 10:04:23;;;;;;;6.00;4.30;;;23.40;99.90;;;;;;5076911;28;20039;-41
2023/06/01 10:06:54;;;;;;;8.38;4.30;;;23.30;99.90;;;;;;5076692;28;20025;-41
2023/06/01 10:09:21;;;;;;;7.28;4.05;;;23.40;99.90;;;;;;5080334;28;20036;-41
2023/06/01 10:11:48;;;;;;;5.90;4.30;;;23.60;99.90;;;;;;5078532;28;20036;-41
2023/06/01 10:14:17;;;;;;;4.80;4.30;;;23.90;99.90;;;;;;5075159;28;20032;-41
2023/06/01 10:16:43;;;;;;;6.00;4.22;;;23.90;99.90;;;;;;5076218;28;20035;-40
2023/06/01 10:19:11;;;;;;;5.43;4.00;;;23.70;99.90;;;;;;5078211;28;20532;-41
2023/06/01 10:21:39;;;;;;;;;;;23.60;99.90;;;;;;5076341;28;20021;-41
2023/06/01 10:24:06;;;;;;;7.97;4.18;;;23.50;99.90;;;;;;5078435;28;20388;-41
2023/06/01 10:27:01;;;;;;;5.75;4.32;;;23.50;99.90;;;;;;5082504;28;20024;-41
2023/06/01 10:29:29;;;;;;;7.75;4.05;;;23.50;99.90;;;;;;5070238;28;20048;-41
2023/06/01 10:31:55;;;;;;;8.55;4.60;;;23.70;99.90;;;;;;5073623;28;20045;-41
2023/06/01 10:34:42;;;;;;;6.75;3.83;;;23.80;99.90;;;;;;5072644;28;20039;-41
2023/06/01 10:37:08;;;;;;;7.85;4.15;;;23.60;99.90;;;;;;5075671;28;20036;-41
2023/06/01 10:39:34;;;;;;;9.32;4.40;;;23.50;99.90;;;;;;5067691;28;20032;-41
2023/06/01 10:42:18;;;;;;;6.88;4.13;;;23.50;99.90;;;;;;5081395;28;20081;-41
2023/06/01 10:44:47;;;;;;;8.30;4.47;;;23.70;99.90;;;;;;5076515;28;20419;-41
2023/06/01 10:47:12;;;;;;;7.50;4.30;;;24.00;99.90;;;;;;5079144;28;20033;-41
2023/06/01 10:49:47;;;;;;;7.07;4.10;;;23.90;99.90;;;;;;5074194;28;20047;-41
2023/06/01 10:52:30;;;;;;;4.75;3.90;;;23.90;99.90;;;;;;5078804;28;20020;-40
2023/06/01 10:55:13;;;;;;;6.75;4.25;;;24.20;99.90;;;;;;5075791;28;20623;-41
2023/06/01 10:57:43;;;;;;;5.82;3.70;;;24.10;99.90;;;;;;5075772;28;20036;-40
2023/06/01 11:00:09;;;;;;;6.80;3.90;;;24.10;99.90;;;;;;5083554;28;20091;-41
2023/06/01 11:02:41;;;;;;;5.93;4.03;;;24.20;99.90;;;;;;5074763;28;20501;-40
2023/06/01 11:05:48;;;;;;;4.80;3.60;;;24.20;99.90;;;;;;5079718;28;20033;-40
2023/06/01 11:08:17;;;;;;;6.85;4.10;;;24.30;99.90;;;;;;5074539;28;20154;-41
2023/06/01 11:10:55;;;;;;;5.85;4.03;;;24.40;99.90;;;;;;5080375;28;20036;-40
2023/06/01 11:13:24;;;;;;;6.85;4.20;;;24.60;99.90;;;;;;5061892;28;20041;-40
2023/06/01 11:16:13;;;;;;;5.72;4.07;;;24.70;99.90;;;;;;5069352;28;20039;-40
2023/06/01 11:18:59;;;;;;;6.97;4.60;;;24.80;99.90;;;;;;5077061;28;20059;-41
2023/06/01 11:21:37;;;;;;;6.72;3.90;;;24.70;99.90;;;;;;5079582;28;20031;-40
2023/06/01 11:24:10;;;;;;;8.00;4.75;;;24.70;99.90;;;;;;5083166;28;20097;-41
2023/06/01 11:26:47;;;;;;;5.25;3.72;;;24.90;99.90;;;;;;5066524;28;20021;-40
2023/06/01 11:29:17;;;;;;;6.03;3.90;;;24.80;99.90;;;;;;5078312;28;20796;-40
2023/06/01 11:31:57;;;;;;;4.90;3.75;;;24.80;99.90;;;;;;5084359;28;20024;-40
2023/06/01 11:34:34;;;;;;;5.78;3.72;;;24.70;99.90;;;;;;5080381;28;20046;-40
2023/06/01 11:37:01;;;;;;;;;;;24.80;99.90;;;;;;5079879;28;20034;-40
2023/06/01 11:39:30;;;;;;;10.50;4.72;;;24.90;99.90;;;;;;5081122;28;19954;-40
2023/06/01 11:42:07;;;;;;;7.45;4.45;;;24.70;99.90;;;;;;5079289;28;20462;-40
2023/06/01 11:44:38;;;;;;;6.97;3.92;;;24.90;99.90;;;;;;5084967;28;20044;-40
2023/06/01 11:47:05;;;;;;;6.53;3.72;;;24.90;99.90;;;;;;5080069;28;20028;-40
2023/06/01 11:49:41;;;;;;;6.45;4.32;;;24.90;99.90;;;;;;5083115;28;20373;-41
2023/06/01 11:52:09;;;;;;;6.28;4.40;;;24.90;99.90;;;;;;5082271;28;20060;-41
2023/06/01 11:54:36;;;;;;;5.50;4.13;;;24.70;99.90;;;;;;5077930;28;20035;-41
2023/06/01 11:57:02;;;;;;;7.33;4.23;;;24.50;99.90;;;;;;5077785;28;21012;-43
2023/06/01 11:59:40;;;;;;;6.10;4.63;;;24.50;99.90;;;;;;5076753;28;20028;-41
2023/06/01 12:02:17;;;;;;;;;;;24.50;99.90;;;;;;5059807;28;20040;-41
2023/06/01 12:05:01;;;;;;;6.53;4.18;;;24.60;99.90;;;;;;5078941;28;19995;-41
2023/06/01 12:07:27;;;;;;;7.50;3.85;;;24.50;99.90;;;;;;5066610;28;20058;-41
2023/06/01 12:09:54;;;;;;;7.05;4.10;;;24.70;99.90;;;;;;5082184;28;20489;-41
2023/06/01 12:12:24;;;;;;;5.55;3.97;;;24.90;99.90;;;;;;5083936;28;20048;-41
2023/06/01 12:14:51;;;;;;;5.97;4.22;;;24.70;99.90;;;;;;5079940;28;20101;-41
2023/06/01 12:17:17;;;;;;;7.15;4.70;;;24.80;99.90;;;;;;5081439;28;20081;-41
2023/06/01 12:19:49;;;;;;;6.20;4.20;;;24.90;99.90;;;;;;5083988;28;20039;-41
2023/06/01 12:22:16;;;;;;;4.38;3.75;;;25.10;99.90;;;;;;5077020;28;20043;-41
2023/06/01 12:24:44;;;;;;;7.47;4.03;;;25.20;99.90;;;;;;5078758;28;20063;-41
2023/06/01 12:27:14;;;;;;;;;;;25.30;99.90;;;;;;5079512;28;20036;-41
2023/06/01 12:29:42;;;;;;;6.35;3.80;;;25.60;99.90;;;;;;5080197;28;19915;-41
2023/06/01 12:32:09;;;;;;;6.93;4.60;;;26.00;99.90;;;;;;5076535;28;20060;-41
2023/06/01 12:34:45;;;;;;;7.95;4.00;;;26.20;99.90;;;;;;5079786;28;20086;-41
2023/06/01 12:37:12;;;;;;;9.60;4.13;;;26.40;99.90;;;;;;5083495;28;20119;-41
2023/06/01 12:39:40;;;;;;;5.97;3.92;;;26.20;99.90;;;;;;5078150;28;20038;-41
2023/06/01 12:42:06;;;;;;;5.75;4.10;;;25.50;99.90;;;;;;5081177;28;20861;-41
2023/06/01 12:44:36;;;;;;;6.25;4.30;;;25.50;99.90;;;;;;5077152;28;20033;-41
2023/06/01 12:47:02;;;;;;;6.30;4.25;;;25.40;99.90;;;;;;5080313;28;20032;-41
2023/06/01 12:49:28;;;;;;;6.93;4.20;;;25.30;99.90;;;;;;5080553;28;20043;-41
2023/06/01 12:51:54;;;;;;;9.30;4.80;;;25.20;99.90;;;;;;5077154;28;20050;-43
2023/06/01 12:54:19;;;;;;;5.53;3.53;;;25.20;99.90;;;;;;5063100;28;20028;-41